sensor_id;sensor_type;location;lat;lon;timestamp;temperature;humidity
28244;DHT22;15510;52.512;13.300;2022-08-19T00:00:09;22.40;99.90
28244;DHT22;15510;52.512;13.300;2022-08-19T00:02:35;22.50;99.90
28244;DHT22;15510;52.512;13.300;2022-08-19T00:05:02;22.60;99.90
28244;DHT22;15510;52.512;13.300;2022-08-19T00:07:28;22.60;99.90
28244;DHT22;15510;52.512;13.300;2022-08-19T00:09:53;22.50;99.90
28244;DHT22;15510;52.512;13.300;2022-08-19T00:12:19;22.50;99.90
28244;DHT22;15510;52.512;13.300;2022-08-19T00:14:45;22.50;99.90
28244;DHT22;15510;52.512;13.300;2022-08-19T00:17:11;22.60;99.90
28244;DHT22;15510;52.512;13.300;2022-08-19T00:19:38;22.60;99.90
28244;DHT22;15510;52.512;13.300;2022-08-19T00:22:04;22.60;99.90
28244;DHT22;15510;52.512;13.300;2022-08-19T00:24:31;22.50;99.90
28244;DHT22;15510;52.512;13.300;2022-08-19T00:26:58;22.50;99.90
28244;DHT22;15510;52.512;13.300;2022-08-19T00:29:24;22.50;99.90
28244;DHT22;15510;52.512;13.300;2022-08-19T00:31:52;22.50;99.90
28244;DHT22;15510;52.512;13.300;2022-08-19T00:34:20;22.50;99.90
28244;DHT22;15510;52.512;13.300;2022-08-19T00:36:48;22.50;99.90
28244;DHT22;15510;52.512;13.300;2022-08-19T00:39:16;22.50;99.90
28244;DHT22;15510;52.512;13.300;2022-08-19T00:41:43;22.50;99.90
28244;DHT22;15510;52.512;13.300;2022-08-19T00:44:14;22.40;99.90
28244;DHT22;15510;52.512;13.300;2022-08-19T00:46:43;22.40;99.90
28244;DHT22;15510;52.512;13.300;2022-08-19T00:49:19;22.40;99.90
28244;DHT22;15510;52.512;13.300;2022-08-19T00:51:50;22.40;99.90
28244;DHT22;15510;52.512;13.300;2022-08-19T00:54:17;22.40;99.90
28244;DHT22;15510;52.512;13.300;2022-08-19T00:56:45;22.40;99.90
28244;DHT22;15510;52.512;13.300;2022-08-19T00:59:12;22.40;99.90
28244;DHT22;15510;52.512;13.300;2022-08-19T01:01:40;22.40;99.90
28244;DHT22;15510;52.512;13.300;2022-08-19T01:04:07;22.40;99.90
28244;DHT22;15510;52.512;13.300;2022-08-19T01:06:33;22.50;99.90
28244;DHT22;15510;52.512;13.300;2022-08-19T01:09:00;22.50;99.90
28244;DHT22;15510;52.512;13.300;2022-08-19T01:11:27;22.40;99.90
28244;DHT22;15510;52.512;13.300;2022-08-19T01:13:54;22.40;99.90
28244;DHT22;15510;52.512;13.300;2022-08-19T01:16:22;22.40;99.90
28244;DHT22;15510;52.512;13.300;2022-08-19T01:18:49;22.40;99.90
28244;DHT22;15510;52.512;13.300;2022-08-19T01:23:59;22.20;99.90
28244;DHT22;15510;52.512;13.300;2022-08-19T01:26:26;22.00;99.90
28244;DHT22;15510;52.512;13.300;2022-08-19T01:28:54;22.00;99.90
28244;DHT22;15510;52.512;13.300;2022-08-19T01:31:22;21.90;99.90
28244;DHT22;15510;52.512;13.300;2022-08-19T01:33:51;21.80;99.90
28244;DHT22;15510;52.512;13.300;2022-08-19T01:36:48;21.70;99.90
28244;DHT22;15510;52.512;13.300;2022-08-19T01:39:19;21.60;99.90
28244;DHT22;15510;52.512;13.300;2022-08-19T01:41:46;21.60;99.90
28244;DHT22;15510;52.512;13.300;2022-08-19T01:44:12;21.50;99.90
28244;DHT22;15510;52.512;13.300;2022-08-19T01:46:38;21.50;99.90
28244;DHT22;15510;52.512;13.300;2022-08-19T01:49:05;21.50;99.90
28244;DHT22;15510;52.512;13.300;2022-08-19T01:51:31;21.50;99.90
28244;DHT22;15510;52.512;13.300;2022-08-19T01:53:57;21.50;99.90
28244;DHT22;15510;52.512;13.300;2022-08-19T01:56:23;21.40;99.90
28244;DHT22;15510;52.512;13.300;2022-08-19T01:59:02;21.40;99.90
28244;DHT22;15510;52.512;13.300;2022-08-19T02:01:29;21.30;99.90
28244;DHT22;15510;52.512;13.300;2022-08-19T02:03:58;21.30;99.90
28244;DHT22;15510;52.512;13.300;2022-08-19T02:06:24;21.20;99.90
28244;DHT22;15510;52.512;13.300;2022-08-19T02:08:49;21.20;99.90
28244;DHT22;15510;52.512;13.300;2022-08-19T02:11:24;21.20;99.90
28244;DHT22;15510;52.512;13.300;2022-08-19T02:13:53;21.10;99.90
28244;DHT22;15510;52.512;13.300;2022-08-19T02:16:19;21.10;99.90
28244;DHT22;15510;52.512;13.300;2022-08-19T02:18:46;21.10;99.90
28244;DHT22;15510;52.512;13.300;2022-08-19T02:21:17;21.00;99.90
28244;DHT22;15510;52.512;13.300;2022-08-19T02:23:44;20.90;99.90
28244;DHT22;15510;52.512;13.300;2022-08-19T02:26:10;20.90;99.90
28244;DHT22;15510;52.512;13.300;2022-08-19T02:28:36;20.90;99.90
28244;DHT22;15510;52.512;13.300;2022-08-19T02:31:03;20.80;99.90
28244;DHT22;15510;52.512;13.300;2022-08-19T02:33:29;20.90;99.90
28244;DHT22;15510;52.512;13.300;2022-08-19T02:35:55;20.90;99.90
28244;DHT22;15510;52.512;13.300;2022-08-19T02:38:20;20.90;99.90
28244;DHT22;15510;52.512;13.300;2022-08-19T02:41:05;20.90;99.90
28244;DHT22;15510;52.512;13.300;2022-08-19T02:43:32;20.80;99.90
28244;DHT22;15510;52.512;13.300;2022-08-19T02:46:02;20.70;99.90
28244;DHT22;15510;52.512;13.300;2022-08-19T02:48:35;20.70;99.90
28244;DHT22;15510;52.512;13.300;2022-08-19T02:51:01;20.60;99.90
28244;DHT22;15510;52.512;13.300;2022-08-19T02:53:27;20.60;99.90
28244;DHT22;15510;52.512;13.300;2022-08-19T02:55:53;20.50;99.90
28244;DHT22;15510;52.512;13.300;2022-08-19T02:58:21;20.50;99.90
28244;DHT22;15510;52.512;13.300;2022-08-19T03:00:49;20.50;99.90
28244;DHT22;15510;52.512;13.300;2022-08-19T03:03:17;20.60;99.90
28244;DHT22;15510;52.512;13.300;2022-08-19T03:05:43;20.50;99.90
28244;DHT22;15510;52.512;13.300;2022-08-19T03:08:09;20.50;99.90
28244;DHT22;15510;52.512;13.300;2022-08-19T03:10:46;20.50;99.90
28244;DHT22;15510;52.512;13.300;2022-08-19T03:13:16;20.50;99.90
28244;DHT22;15510;52.512;13.300;2022-08-19T03:15:44;20.60;99.90
28244;DHT22;15510;52.512;13.300;2022-08-19T03:18:10;20.50;99.90
28244;DHT22;15510;52.512;13.300;2022-08-19T03:20:43;20.50;99.90
28244;DHT22;15510;52.512;13.300;2022-08-19T03:23:10;20.50;99.90
28244;DHT22;15510;52.512;13.300;2022-08-19T03:25:39;20.50;99.90
28244;DHT22;15510;52.512;13.300;2022-08-19T03:28:06;20.50;99.90
28244;DHT22;15510;52.512;13.300;2022-08-19T03:30:32;20.50;99.90
28244;DHT22;15510;52.512;13.300;2022-08-19T03:32:58;20.40;99.90
28244;DHT22;15510;52.512;13.300;2022-08-19T03:35:24;20.40;99.90
28244;DHT22;15510;52.512;13.300;2022-08-19T03:37:49;20.40;99.90
28244;DHT22;15510;52.512;13.300;2022-08-19T03:40:16;20.40;99.90
28244;DHT22;15510;52.512;13.300;2022-08-19T03:42:41;20.30;99.90
28244;DHT22;15510;52.512;13.300;2022-08-19T03:45:08;20.40;99.90
28244;DHT22;15510;52.512;13.300;2022-08-19T03:47:35;20.40;99.90
28244;DHT22;15510;52.512;13.300;2022-08-19T03:50:02;20.30;99.90
28244;DHT22;15510;52.512;13.300;2022-08-19T03:52:28;20.30;99.90
28244;DHT22;15510;52.512;13.300;2022-08-19T03:54:54;20.40;99.90
28244;DHT22;15510;52.512;13.300;2022-08-19T03:57:20;20.40;99.90
28244;DHT22;15510;52.512;13.300;2022-08-19T03:59:45;20.40;99.90
28244;DHT22;15510;52.512;13.300;2022-08-19T04:02:12;20.30;99.90
28244;DHT22;15510;52.512;13.300;2022-08-19T04:04:40;20.40;99.90
28244;DHT22;15510;52.512;13.300;2022-08-19T04:07:06;20.40;99.90
28244;DHT22;15510;52.512;13.300;2022-08-19T04:09:34;20.40;99.90
28244;DHT22;15510;52.512;13.300;2022-08-19T04:12:03;20.40;99.90
28244;DHT22;15510;52.512;13.300;2022-08-19T04:14:31;20.40;99.90
28244;DHT22;15510;52.512;13.300;2022-08-19T04:16:58;20.40;99.90
28244;DHT22;15510;52.512;13.300;2022-08-19T04:19:25;20.40;99.90
28244;DHT22;15510;52.512;13.300;2022-08-19T04:21:53;20.50;99.90
28244;DHT22;15510;52.512;13.300;2022-08-19T04:24:20;20.50;99.90
28244;DHT22;15510;52.512;13.300;2022-08-19T04:26:46;20.50;99.90
28244;DHT22;15510;52.512;13.300;2022-08-19T04:29:19;20.50;99.90
28244;DHT22;15510;52.512;13.300;2022-08-19T04:31:47;20.50;99.90
28244;DHT22;15510;52.512;13.300;2022-08-19T04:34:16;20.50;99.90
28244;DHT22;15510;52.512;13.300;2022-08-19T04:36:44;20.60;99.90
28244;DHT22;15510;52.512;13.300;2022-08-19T04:39:18;20.60;99.90
28244;DHT22;15510;52.512;13.300;2022-08-19T04:41:44;20.60;99.90
28244;DHT22;15510;52.512;13.300;2022-08-19T04:44:33;20.60;99.90
28244;DHT22;15510;52.512;13.300;2022-08-19T04:46:59;20.60;99.90
28244;DHT22;15510;52.512;13.300;2022-08-19T04:49:25;20.60;99.90
28244;DHT22;15510;52.512;13.300;2022-08-19T04:51:53;20.60;99.90
28244;DHT22;15510;52.512;13.300;2022-08-19T04:54:21;20.60;99.90
28244;DHT22;15510;52.512;13.300;2022-08-19T04:56:49;20.60;99.90
28244;DHT22;15510;52.512;13.300;2022-08-19T04:59:16;20.60;99.90
28244;DHT22;15510;52.512;13.300;2022-08-19T05:01:42;20.60;99.90
28244;DHT22;15510;52.512;13.300;2022-08-19T05:04:08;20.70;99.90
28244;DHT22;15510;52.512;13.300;2022-08-19T05:06:35;20.70;99.90
28244;DHT22;15510;52.512;13.300;2022-08-19T05:09:03;20.80;99.90
28244;DHT22;15510;52.512;13.300;2022-08-19T05:11:32;20.90;99.90
28244;DHT22;15510;52.512;13.300;2022-08-19T05:13:58;20.90;99.90
28244;DHT22;15510;52.512;13.300;2022-08-19T05:16:26;21.00;99.90
28244;DHT22;15510;52.512;13.300;2022-08-19T05:18:52;21.00;99.90
28244;DHT22;15510;52.512;13.300;2022-08-19T05:21:37;21.10;99.90
28244;DHT22;15510;52.512;13.300;2022-08-19T05:24:23;21.20;99.90
28244;DHT22;15510;52.512;13.300;2022-08-19T05:26:50;21.20;99.90
28244;DHT22;15510;52.512;13.300;2022-08-19T05:29:18;21.30;99.90
28244;DHT22;15510;52.512;13.300;2022-08-19T05:31:45;21.40;99.90
28244;DHT22;15510;52.512;13.300;2022-08-19T05:34:11;21.50;99.90
28244;DHT22;15510;52.512;13.300;2022-08-19T05:36:41;21.60;99.90
28244;DHT22;15510;52.512;13.300;2022-08-19T05:39:16;21.60;99.90
28244;DHT22;15510;52.512;13.300;2022-08-19T05:41:47;21.70;99.90
28244;DHT22;15510;52.512;13.300;2022-08-19T05:44:14;21.70;99.90
28244;DHT22;15510;52.512;13.300;2022-08-19T05:46:41;21.80;99.90
28244;DHT22;15510;52.512;13.300;2022-08-19T05:49:08;21.90;99.90
28244;DHT22;15510;52.512;13.300;2022-08-19T05:51:35;22.00;99.90
28244;DHT22;15510;52.512;13.300;2022-08-19T05:54:03;22.10;99.90
28244;DHT22;15510;52.512;13.300;2022-08-19T05:56:30;22.20;99.90
28244;DHT22;15510;52.512;13.300;2022-08-19T05:59:02;22.20;99.90
28244;DHT22;15510;52.512;13.300;2022-08-19T06:01:29;22.20;99.90
28244;DHT22;15510;52.512;13.300;2022-08-19T06:03:55;22.30;99.90
28244;DHT22;15510;52.512;13.300;2022-08-19T06:06:20;22.30;99.90
28244;DHT22;15510;52.512;13.300;2022-08-19T06:08:46;22.40;99.90
28244;DHT22;15510;52.512;13.300;2022-08-19T06:11:22;22.40;99.90
28244;DHT22;15510;52.512;13.300;2022-08-19T06:13:51;22.50;99.90
28244;DHT22;15510;52.512;13.300;2022-08-19T06:16:19;22.50;99.90
28244;DHT22;15510;52.512;13.300;2022-08-19T06:18:51;22.70;99.90
28244;DHT22;15510;52.512;13.300;2022-08-19T06:21:22;22.70;99.90
28244;DHT22;15510;52.512;13.300;2022-08-19T06:23:48;22.80;99.90
28244;DHT22;15510;52.512;13.300;2022-08-19T06:26:15;22.80;99.90
28244;DHT22;15510;52.512;13.300;2022-08-19T06:28:41;22.80;99.90
28244;DHT22;15510;52.512;13.300;2022-08-19T06:31:16;22.80;99.90
28244;DHT22;15510;52.512;13.300;2022-08-19T06:33:46;22.90;99.90
28244;DHT22;15510;52.512;13.300;2022-08-19T06:36:24;22.90;99.90
28244;DHT22;15510;52.512;13.300;2022-08-19T06:39:08;23.00;99.90
28244;DHT22;15510;52.512;13.300;2022-08-19T06:41:39;23.00;99.90
28244;DHT22;15510;52.512;13.300;2022-08-19T06:44:09;23.20;99.90
28244;DHT22;15510;52.512;13.300;2022-08-19T06:46:36;23.20;99.90
28244;DHT22;15510;52.512;13.300;2022-08-19T06:49:03;23.20;99.90
28244;DHT22;15510;52.512;13.300;2022-08-19T06:51:28;23.20;99.90
28244;DHT22;15510;52.512;13.300;2022-08-19T06:53:55;23.10;99.90
28244;DHT22;15510;52.512;13.300;2022-08-19T06:56:25;23.10;99.90
28244;DHT22;15510;52.512;13.300;2022-08-19T06:58:56;23.10;99.90
28244;DHT22;15510;52.512;13.300;2022-08-19T07:01:22;23.10;99.90
28244;DHT22;15510;52.512;13.300;2022-08-19T07:03:47;23.10;99.90
28244;DHT22;15510;52.512;13.300;2022-08-19T07:06:15;23.00;99.90
28244;DHT22;15510;52.512;13.300;2022-08-19T07:08:46;22.90;99.90
28244;DHT22;15510;52.512;13.300;2022-08-19T07:11:16;22.90;99.90
28244;DHT22;15510;52.512;13.300;2022-08-19T07:13:43;22.90;99.90
28244;DHT22;15510;52.512;13.300;2022-08-19T07:16:15;22.80;99.90
28244;DHT22;15510;52.512;13.300;2022-08-19T07:18:42;22.90;99.90
28244;DHT22;15510;52.512;13.300;2022-08-19T07:21:27;22.80;99.90
28244;DHT22;15510;52.512;13.300;2022-08-19T07:23:54;22.90;99.90
28244;DHT22;15510;52.512;13.300;2022-08-19T07:26:26;22.90;99.90
28244;DHT22;15510;52.512;13.300;2022-08-19T07:28:53;23.00;99.90
28244;DHT22;15510;52.512;13.300;2022-08-19T07:31:22;23.20;99.90
28244;DHT22;15510;52.512;13.300;2022-08-19T07:33:50;23.30;99.90
28244;DHT22;15510;52.512;13.300;2022-08-19T07:36:19;23.40;99.90
28244;DHT22;15510;52.512;13.300;2022-08-19T07:38:47;23.50;99.90
28244;DHT22;15510;52.512;13.300;2022-08-19T07:41:18;23.50;99.90
28244;DHT22;15510;52.512;13.300;2022-08-19T07:43:44;23.50;99.90
28244;DHT22;15510;52.512;13.300;2022-08-19T07:46:11;23.50;99.90
28244;DHT22;15510;52.512;13.300;2022-08-19T07:48:39;23.40;99.90
28244;DHT22;15510;52.512;13.300;2022-08-19T07:51:06;23.50;99.90
28244;DHT22;15510;52.512;13.300;2022-08-19T07:53:34;23.60;99.90
28244;DHT22;15510;52.512;13.300;2022-08-19T07:56:00;23.60;99.90
28244;DHT22;15510;52.512;13.300;2022-08-19T07:58:34;23.70;99.90
28244;DHT22;15510;52.512;13.300;2022-08-19T08:01:00;23.80;99.90
28244;DHT22;15510;52.512;13.300;2022-08-19T08:03:27;23.80;99.90
28244;DHT22;15510;52.512;13.300;2022-08-19T08:08:46;23.90;99.90
28244;DHT22;15510;52.512;13.300;2022-08-19T08:11:31;23.90;99.90
28244;DHT22;15510;52.512;13.300;2022-08-19T08:13:57;23.90;99.90
28244;DHT22;15510;52.512;13.300;2022-08-19T08:16:23;23.90;99.90
28244;DHT22;15510;52.512;13.300;2022-08-19T08:18:55;23.80;99.90
28244;DHT22;15510;52.512;13.300;2022-08-19T08:21:20;23.80;99.90
28244;DHT22;15510;52.512;13.300;2022-08-19T08:23:46;23.90;99.90
28244;DHT22;15510;52.512;13.300;2022-08-19T08:26:12;23.90;99.90
28244;DHT22;15510;52.512;13.300;2022-08-19T08:28:40;24.00;99.90
28244;DHT22;15510;52.512;13.300;2022-08-19T08:31:06;24.00;99.90
28244;DHT22;15510;52.512;13.300;2022-08-19T08:33:32;23.90;99.90
28244;DHT22;15510;52.512;13.300;2022-08-19T08:35:57;24.00;99.90
28244;DHT22;15510;52.512;13.300;2022-08-19T08:38:23;24.00;99.90
28244;DHT22;15510;52.512;13.300;2022-08-19T08:40:53;24.00;99.90
28244;DHT22;15510;52.512;13.300;2022-08-19T08:43:32;24.10;99.90
28244;DHT22;15510;52.512;13.300;2022-08-19T08:46:09;23.90;99.90
28244;DHT22;15510;52.512;13.300;2022-08-19T08:48:56;23.90;99.90
28244;DHT22;15510;52.512;13.300;2022-08-19T08:51:27;23.90;99.90
28244;DHT22;15510;52.512;13.300;2022-08-19T08:53:54;23.80;99.90
28244;DHT22;15510;52.512;13.300;2022-08-19T08:56:21;23.70;99.90
28244;DHT22;15510;52.512;13.300;2022-08-19T08:58:56;23.70;99.90
28244;DHT22;15510;52.512;13.300;2022-08-19T09:01:23;23.70;99.90
28244;DHT22;15510;52.512;13.300;2022-08-19T09:03:49;23.60;99.90
28244;DHT22;15510;52.512;13.300;2022-08-19T09:06:26;23.60;99.90
28244;DHT22;15510;52.512;13.300;2022-08-19T09:14:39;23.40;99.90
28244;DHT22;15510;52.512;13.300;2022-08-19T09:17:12;23.40;99.90
28244;DHT22;15510;52.512;13.300;2022-08-19T09:19:59;23.40;99.90
28244;DHT22;15510;52.512;13.300;2022-08-19T09:22:35;23.50;99.90
28244;DHT22;15510;52.512;13.300;2022-08-19T09:25:01;23.50;99.90
28244;DHT22;15510;52.512;13.300;2022-08-19T09:27:29;23.60;99.90
28244;DHT22;15510;52.512;13.300;2022-08-19T09:29:55;23.90;99.90
28244;DHT22;15510;52.512;13.300;2022-08-19T09:32:22;24.20;99.90
28244;DHT22;15510;52.512;13.300;2022-08-19T09:34:48;24.50;99.90
28244;DHT22;15510;52.512;13.300;2022-08-19T09:37:14;24.90;99.90
28244;DHT22;15510;52.512;13.300;2022-08-19T09:39:40;25.20;99.90
28244;DHT22;15510;52.512;13.300;2022-08-19T09:42:07;25.30;99.90
28244;DHT22;15510;52.512;13.300;2022-08-19T09:44:40;25.50;99.90
28244;DHT22;15510;52.512;13.300;2022-08-19T09:47:07;25.40;99.90
28244;DHT22;15510;52.512;13.300;2022-08-19T09:49:33;25.40;99.90
28244;DHT22;15510;52.512;13.300;2022-08-19T09:51:59;25.60;99.90
28244;DHT22;15510;52.512;13.300;2022-08-19T09:54:25;25.80;99.90
28244;DHT22;15510;52.512;13.300;2022-08-19T09:56:54;25.90;99.90
28244;DHT22;15510;52.512;13.300;2022-08-19T09:59:21;25.90;99.90
28244;DHT22;15510;52.512;13.300;2022-08-19T10:01:47;25.60;99.90
28244;DHT22;15510;52.512;13.300;2022-08-19T10:04:12;25.40;99.90
28244;DHT22;15510;52.512;13.300;2022-08-19T10:06:39;25.40;99.90
28244;DHT22;15510;52.512;13.300;2022-08-19T10:09:06;25.20;99.90
28244;DHT22;15510;52.512;13.300;2022-08-19T10:11:36;25.10;99.90
28244;DHT22;15510;52.512;13.300;2022-08-19T10:14:04;25.20;99.90
28244;DHT22;15510;52.512;13.300;2022-08-19T10:16:31;25.10;99.90
28244;DHT22;15510;52.512;13.300;2022-08-19T10:18:58;25.30;99.90
28244;DHT22;15510;52.512;13.300;2022-08-19T10:21:28;25.50;99.90
28244;DHT22;15510;52.512;13.300;2022-08-19T10:23:55;25.70;99.90
28244;DHT22;15510;52.512;13.300;2022-08-19T10:26:25;25.80;99.90
28244;DHT22;15510;52.512;13.300;2022-08-19T10:28:52;25.90;99.90
28244;DHT22;15510;52.512;13.300;2022-08-19T10:31:24;26.20;99.90
28244;DHT22;15510;52.512;13.300;2022-08-19T10:33:51;26.40;99.90
28244;DHT22;15510;52.512;13.300;2022-08-19T10:36:30;26.40;99.90
28244;DHT22;15510;52.512;13.300;2022-08-19T10:38:58;26.30;99.90
28244;DHT22;15510;52.512;13.300;2022-08-19T10:41:27;26.40;99.90
28244;DHT22;15510;52.512;13.300;2022-08-19T10:43:55;26.30;99.90
28244;DHT22;15510;52.512;13.300;2022-08-19T10:46:23;26.20;99.90
28244;DHT22;15510;52.512;13.300;2022-08-19T10:48:50;26.20;99.90
28244;DHT22;15510;52.512;13.300;2022-08-19T10:51:16;26.00;99.90
28244;DHT22;15510;52.512;13.300;2022-08-19T10:54:01;25.90;99.90
28244;DHT22;15510;52.512;13.300;2022-08-19T10:56:28;25.70;99.90
28244;DHT22;15510;52.512;13.300;2022-08-19T10:59:13;25.40;99.90
28244;DHT22;15510;52.512;13.300;2022-08-19T11:01:40;25.20;99.90
28244;DHT22;15510;52.512;13.300;2022-08-19T11:04:06;25.10;99.90
28244;DHT22;15510;52.512;13.300;2022-08-19T11:06:36;24.90;99.90
28244;DHT22;15510;52.512;13.300;2022-08-19T11:09:02;24.70;99.90
28244;DHT22;15510;52.512;13.300;2022-08-19T11:11:28;24.80;99.90
28244;DHT22;15510;52.512;13.300;2022-08-19T11:13:54;24.70;99.90
28244;DHT22;15510;52.512;13.300;2022-08-19T11:16:22;24.70;99.90
28244;DHT22;15510;52.512;13.300;2022-08-19T11:18:52;24.70;99.90
28244;DHT22;15510;52.512;13.300;2022-08-19T11:23:51;24.80;99.90
28244;DHT22;15510;52.512;13.300;2022-08-19T11:26:19;24.80;99.90
28244;DHT22;15510;52.512;13.300;2022-08-19T11:28:45;24.80;99.90
28244;DHT22;15510;52.512;13.300;2022-08-19T11:31:16;24.80;99.90
28244;DHT22;15510;52.512;13.300;2022-08-19T11:33:43;24.60;99.90
28244;DHT22;15510;52.512;13.300;2022-08-19T11:36:09;24.60;99.90
28244;DHT22;15510;52.512;13.300;2022-08-19T11:38:36;24.60;99.90
28244;DHT22;15510;52.512;13.300;2022-08-19T11:41:05;24.60;99.90
28244;DHT22;15510;52.512;13.300;2022-08-19T11:43:31;24.60;99.90
28244;DHT22;15510;52.512;13.300;2022-08-19T11:45:57;24.50;99.90
28244;DHT22;15510;52.512;13.300;2022-08-19T11:48:24;24.50;99.90
28244;DHT22;15510;52.512;13.300;2022-08-19T11:50:51;24.40;99.90
28244;DHT22;15510;52.512;13.300;2022-08-19T11:53:19;24.30;99.90
28244;DHT22;15510;52.512;13.300;2022-08-19T11:55:49;24.30;99.90
28244;DHT22;15510;52.512;13.300;2022-08-19T11:58:16;24.20;99.90
28244;DHT22;15510;52.512;13.300;2022-08-19T12:00:43;24.30;99.90
28244;DHT22;15510;52.512;13.300;2022-08-19T12:03:11;24.50;99.90
28244;DHT22;15510;52.512;13.300;2022-08-19T12:05:38;24.60;99.90
28244;DHT22;15510;52.512;13.300;2022-08-19T12:08:06;24.90;99.90
28244;DHT22;15510;52.512;13.300;2022-08-19T12:10:32;25.10;99.90
28244;DHT22;15510;52.512;13.300;2022-08-19T12:12:59;25.10;99.90
28244;DHT22;15510;52.512;13.300;2022-08-19T12:15:26;25.20;99.90
28244;DHT22;15510;52.512;13.300;2022-08-19T12:17:53;25.10;99.90
28244;DHT22;15510;52.512;13.300;2022-08-19T12:20:22;25.10;99.90
28244;DHT22;15510;52.512;13.300;2022-08-19T12:22:48;25.00;99.90
28244;DHT22;15510;52.512;13.300;2022-08-19T12:25:14;24.90;99.90
28244;DHT22;15510;52.512;13.300;2022-08-19T12:27:40;24.90;99.90
28244;DHT22;15510;52.512;13.300;2022-08-19T12:30:08;24.80;99.90
28244;DHT22;15510;52.512;13.300;2022-08-19T12:32:34;24.90;99.90
28244;DHT22;15510;52.512;13.300;2022-08-19T12:35:00;25.00;99.90
28244;DHT22;15510;52.512;13.300;2022-08-19T12:37:26;25.10;99.90
28244;DHT22;15510;52.512;13.300;2022-08-19T12:39:52;25.10;99.90
28244;DHT22;15510;52.512;13.300;2022-08-19T12:42:18;25.00;99.90
28244;DHT22;15510;52.512;13.300;2022-08-19T12:44:44;25.00;99.90
28244;DHT22;15510;52.512;13.300;2022-08-19T12:47:12;25.10;99.90
28244;DHT22;15510;52.512;13.300;2022-08-19T12:49:39;25.30;99.90
28244;DHT22;15510;52.512;13.300;2022-08-19T12:52:06;25.40;99.90
28244;DHT22;15510;52.512;13.300;2022-08-19T12:54:34;25.50;99.90
28244;DHT22;15510;52.512;13.300;2022-08-19T12:56:59;25.60;99.90
28244;DHT22;15510;52.512;13.300;2022-08-19T12:59:26;25.80;99.90
28244;DHT22;15510;52.512;13.300;2022-08-19T13:01:53;25.90;99.90
28244;DHT22;15510;52.512;13.300;2022-08-19T13:04:18;26.30;99.90
28244;DHT22;15510;52.512;13.300;2022-08-19T13:06:44;26.50;99.90
28244;DHT22;15510;52.512;13.300;2022-08-19T13:09:10;26.50;99.90
28244;DHT22;15510;52.512;13.300;2022-08-19T13:11:37;26.60;99.90
28244;DHT22;15510;52.512;13.300;2022-08-19T13:14:03;26.50;99.90
28244;DHT22;15510;52.512;13.300;2022-08-19T13:16:30;26.30;99.90
28244;DHT22;15510;52.512;13.300;2022-08-19T13:18:56;26.20;99.90
28244;DHT22;15510;52.512;13.300;2022-08-19T13:21:26;26.10;99.90
28244;DHT22;15510;52.512;13.300;2022-08-19T13:23:53;26.10;99.90
28244;DHT22;15510;52.512;13.300;2022-08-19T13:26:20;26.10;99.90
28244;DHT22;15510;52.512;13.300;2022-08-19T13:28:45;26.10;99.90
28244;DHT22;15510;52.512;13.300;2022-08-19T13:31:32;26.40;99.90
28244;DHT22;15510;52.512;13.300;2022-08-19T13:34:25;26.80;99.90
28244;DHT22;15510;52.512;13.300;2022-08-19T13:36:53;27.80;99.90
28244;DHT22;15510;52.512;13.300;2022-08-19T13:39:19;29.20;99.90
28244;DHT22;15510;52.512;13.300;2022-08-19T13:41:46;30.10;99.90
28244;DHT22;15510;52.512;13.300;2022-08-19T13:44:14;30.70;99.90
28244;DHT22;15510;52.512;13.300;2022-08-19T13:46:41;30.70;99.90
28244;DHT22;15510;52.512;13.300;2022-08-19T13:49:11;30.30;99.90
28244;DHT22;15510;52.512;13.300;2022-08-19T13:51:38;29.70;99.90
28244;DHT22;15510;52.512;13.300;2022-08-19T13:54:06;29.40;99.90
28244;DHT22;15510;52.512;13.300;2022-08-19T13:56:32;29.10;99.90
28244;DHT22;15510;52.512;13.300;2022-08-19T13:58:57;28.70;99.90
28244;DHT22;15510;52.512;13.300;2022-08-19T14:01:23;28.50;99.90
28244;DHT22;15510;52.512;13.300;2022-08-19T14:03:49;28.20;99.90
28244;DHT22;15510;52.512;13.300;2022-08-19T14:06:15;27.90;99.90
28244;DHT22;15510;52.512;13.300;2022-08-19T14:08:42;27.50;99.90
28244;DHT22;15510;52.512;13.300;2022-08-19T14:11:09;27.10;99.90
28244;DHT22;15510;52.512;13.300;2022-08-19T14:13:34;26.90;99.90
28244;DHT22;15510;52.512;13.300;2022-08-19T14:16:00;26.70;99.90
28244;DHT22;15510;52.512;13.300;2022-08-19T14:18:25;26.70;99.90
28244;DHT22;15510;52.512;13.300;2022-08-19T14:20:52;26.50;99.90
28244;DHT22;15510;52.512;13.300;2022-08-19T14:23:18;26.40;99.90
28244;DHT22;15510;52.512;13.300;2022-08-19T14:25:45;26.30;99.90
28244;DHT22;15510;52.512;13.300;2022-08-19T14:28:11;26.30;99.90
28244;DHT22;15510;52.512;13.300;2022-08-19T14:30:38;26.20;99.90
28244;DHT22;15510;52.512;13.300;2022-08-19T14:33:05;26.10;99.90
28244;DHT22;15510;52.512;13.300;2022-08-19T14:35:32;25.90;99.90
28244;DHT22;15510;52.512;13.300;2022-08-19T14:38:05;25.80;99.90
28244;DHT22;15510;52.512;13.300;2022-08-19T14:40:31;25.70;99.90
28244;DHT22;15510;52.512;13.300;2022-08-19T14:43:02;25.50;99.90
28244;DHT22;15510;52.512;13.300;2022-08-19T14:45:32;25.40;99.90
28244;DHT22;15510;52.512;13.300;2022-08-19T14:47:59;25.20;99.90
28244;DHT22;15510;52.512;13.300;2022-08-19T14:50:26;25.20;99.90
28244;DHT22;15510;52.512;13.300;2022-08-19T14:52:59;25.00;99.90
28244;DHT22;15510;52.512;13.300;2022-08-19T14:55:25;24.90;99.90
28244;DHT22;15510;52.512;13.300;2022-08-19T14:57:51;24.90;99.90
28244;DHT22;15510;52.512;13.300;2022-08-19T15:00:17;25.00;99.90
28244;DHT22;15510;52.512;13.300;2022-08-19T15:02:43;25.10;99.90
28244;DHT22;15510;52.512;13.300;2022-08-19T15:05:10;25.10;99.90
28244;DHT22;15510;52.512;13.300;2022-08-19T15:07:36;25.20;99.90
28244;DHT22;15510;52.512;13.300;2022-08-19T15:10:03;25.20;99.90
28244;DHT22;15510;52.512;13.300;2022-08-19T15:12:30;25.10;99.90
28244;DHT22;15510;52.512;13.300;2022-08-19T15:14:56;25.10;99.90
28244;DHT22;15510;52.512;13.300;2022-08-19T15:17:22;25.00;99.90
28244;DHT22;15510;52.512;13.300;2022-08-19T15:19:48;24.90;99.90
28244;DHT22;15510;52.512;13.300;2022-08-19T15:22:13;24.90;99.90
28244;DHT22;15510;52.512;13.300;2022-08-19T15:24:39;24.80;99.90
28244;DHT22;15510;52.512;13.300;2022-08-19T15:27:05;24.70;99.90
28244;DHT22;15510;52.512;13.300;2022-08-19T15:29:31;24.60;99.90
28244;DHT22;15510;52.512;13.300;2022-08-19T15:31:57;24.50;99.90
28244;DHT22;15510;52.512;13.300;2022-08-19T15:34:24;24.50;99.90